createdAt,value
2019-04-19T00:02:07.773Z,102734.48
2019-04-19T00:05:26.852Z,102741.28
2019-04-19T00:09:43.623Z,102736.65
2019-04-19T00:12:48.726Z,102733.70
2019-04-19T00:15:50.012Z,102737.14
2019-04-19T00:19:22.449Z,102739.78
2019-04-19T00:22:24.904Z,102735.95
2019-04-19T00:25:15.642Z,102741.12
2019-04-19T00:28:42.266Z,102730.38
2019-04-19T00:32:08.037Z,102727.06
2019-04-19T00:35:09.926Z,102730.84
2019-04-19T00:38:46.783Z,102730.41
2019-04-19T00:42:04.913Z,102731.86
2019-04-19T00:45:15.613Z,102731.86
2019-04-19T00:48:26.318Z,102731.39
2019-04-19T00:51:34.356Z,102736.11
2019-04-19T00:54:32.883Z,102735.70
2019-04-19T00:57:39.167Z,102739.58
2019-04-19T01:00:43.049Z,102734.06
2019-04-19T01:03:52.791Z,102735.37
2019-04-19T01:07:02.535Z,102741.35
2019-04-19T01:10:31.355Z,102732.82
2019-04-19T01:13:50.764Z,102728.11
2019-04-19T01:17:11.235Z,102733.59
2019-04-19T01:20:15.542Z,102731.95
2019-04-19T01:23:40.576Z,102728.03
2019-04-19T01:26:54.209Z,102737.11
2019-04-19T01:30:10.432Z,102738.31
2019-04-19T01:33:33.959Z,102738.77
2019-04-19T01:36:41.910Z,102749.52
2019-04-19T01:40:04.575Z,102742.80
2019-04-19T01:43:18.989Z,102738.02
2019-04-19T01:46:40.610Z,102743.05
2019-04-19T01:49:59.658Z,102743.94
2019-04-19T01:53:19.390Z,102743.50
2019-04-19T01:56:09.197Z,102742.64
2019-04-19T01:59:25.941Z,102743.48
2019-04-19T02:02:45.958Z,102742.69
2019-04-19T02:06:05.684Z,102741.35
2019-04-19T02:09:29.120Z,102746.45
2019-04-19T02:12:47.139Z,102746.92
2019-04-19T02:15:56.018Z,102748.22
2019-04-19T02:19:18.872Z,102746.45
2019-04-19T02:22:27.726Z,102744.45
2019-04-19T02:25:32.858Z,102751.33
2019-04-19T02:28:42.341Z,102752.15
2019-04-19T02:35:20.162Z,102755.59
2019-04-19T02:38:51.497Z,102751.33
2019-04-19T02:42:10.200Z,102749.63
2019-04-19T02:45:24.034Z,102750.94
2019-04-19T02:48:44.951Z,102747.98
2019-04-19T02:51:58.320Z,102752.18
2019-04-19T02:55:14.672Z,102753.09
2019-04-19T02:58:37.049Z,102749.70
2019-04-19T03:02:32.243Z,102750.50
2019-04-19T03:08:01.899Z,102750.05
2019-04-19T03:11:28.129Z,102756.02
2019-04-19T03:14:35.148Z,102748.44
2019-04-19T03:17:45.010Z,102752.72
2019-04-19T03:20:58.736Z,102755.73
2019-04-19T03:24:18.694Z,102749.70
2019-04-19T03:27:37.135Z,102747.98
2019-04-19T03:31:08.758Z,102752.72
2019-04-19T03:34:31.101Z,102753.55
2019-04-19T03:37:40.249Z,102751.00
2019-04-19T03:40:58.618Z,102758.30
2019-04-19T03:44:22.511Z,102761.74
2019-04-19T03:47:50.445Z,102761.32
2019-04-19T03:51:01.419Z,102759.23
2019-04-19T03:54:05.973Z,102757.56
2019-04-19T03:57:11.637Z,102757.55
2019-04-19T04:00:06.993Z,102757.52
2019-04-19T04:03:24.444Z,102763.05
2019-04-19T04:06:27.633Z,102763.49
2019-04-19T04:09:43.678Z,102763.08
2019-04-19T04:13:25.498Z,102770.66
2019-04-19T04:16:38.722Z,102773.72
2019-04-19T04:19:58.705Z,102776.67
2019-04-19T04:23:10.516Z,102776.73
2019-04-19T04:26:19.488Z,102780.13
2019-04-19T04:29:33.778Z,102787.33
2019-04-19T04:32:49.931Z,102781.83
2019-04-19T04:35:55.505Z,102783.55
2019-04-19T04:38:50.006Z,102785.30
2019-04-19T04:42:08.923Z,102782.27
2019-04-19T04:45:39.417Z,102785.65
2019-04-19T04:49:07.206Z,102790.40
2019-04-19T04:52:18.252Z,102789.14
2019-04-19T04:55:22.319Z,102798.03
2019-04-19T04:58:47.065Z,102791.19
2019-04-19T05:02:02.569Z,102806.59
2019-04-19T05:05:19.873Z,102810.43
2019-04-19T05:08:30.813Z,102805.70
2019-04-19T05:11:34.081Z,102808.22
2019-04-19T05:14:41.853Z,102811.25
2019-04-19T05:17:58.578Z,102818.88
2019-04-19T05:20:55.784Z,102820.55
2019-04-19T05:24:14.927Z,102813.76
2019-04-19T05:27:33.187Z,102813.72
2019-04-19T05:30:41.066Z,102817.97
2019-04-19T05:34:12.400Z,102819.66
2019-04-19T05:37:25.098Z,102819.66
2019-04-19T05:40:56.023Z,102819.66
2019-04-19T05:47:26.130Z,102821.31
2019-04-19T05:50:54.819Z,102823.89
2019-04-19T05:53:53.739Z,102827.22
2019-04-19T05:57:28.143Z,102824.66
2019-04-19T06:00:44.674Z,102826.27
2019-04-19T06:03:52.612Z,102828.00
2019-04-19T06:07:12.327Z,102826.69
2019-04-19T06:10:08.904Z,102834.83
2019-04-19T06:13:17.075Z,102832.26
2019-04-19T06:16:39.537Z,102833.44
2019-04-19T06:20:08.360Z,102835.62
2019-04-19T06:23:19.514Z,102838.08
2019-04-19T06:29:43.652Z,102846.66
2019-04-19T06:32:44.889Z,102848.28
2019-04-19T06:35:43.899Z,102846.96
2019-04-19T06:38:42.277Z,102854.09
2019-04-19T06:41:56.497Z,102853.17
2019-04-19T06:45:28.003Z,102852.73
2019-04-19T06:48:21.455Z,102857.73
2019-04-19T06:51:42.713Z,102859.80
2019-04-19T06:54:52.017Z,102861.41
2019-04-19T06:58:07.679Z,102861.06
2019-04-19T07:01:31.630Z,102868.62
2019-04-19T07:04:46.128Z,102861.00
2019-04-19T07:08:41.211Z,102869.63
2019-04-19T07:11:31.729Z,102868.52
2019-04-19T07:14:33.611Z,102871.58
2019-04-19T07:18:03.705Z,102871.08
2019-04-19T07:21:17.746Z,102875.44
2019-04-19T07:24:33.678Z,102873.59
2019-04-19T07:27:30.843Z,102872.08
2019-04-19T07:30:26.651Z,102878.68
2019-04-19T07:33:53.818Z,102869.42
2019-04-19T07:37:19.560Z,102870.53
2019-04-19T07:40:45.845Z,102872.75
2019-04-19T07:44:02.408Z,102874.42
2019-04-19T07:47:39.375Z,102877.78
2019-04-19T07:50:47.186Z,102874.02
2019-04-19T07:53:49.150Z,102879.48
2019-04-19T07:57:33.401Z,102878.14
2019-04-19T08:00:48.556Z,102873.67
2019-04-19T08:04:06.244Z,102879.35
2019-04-19T08:07:06.707Z,102880.89
2019-04-19T08:10:18.509Z,102886.48
2019-04-19T08:13:31.930Z,102883.89
2019-04-19T08:29:26.661Z,102889.86
2019-04-19T08:32:32.304Z,102885.66
2019-04-19T08:35:45.407Z,102887.90
2019-04-19T08:39:06.794Z,102888.04
2019-04-19T08:42:29.376Z,102890.47
2019-04-19T08:45:40.335Z,102887.89
2019-04-19T08:48:59.355Z,102888.01
2019-04-19T08:52:33.641Z,102888.20
2019-04-19T08:56:05.357Z,102892.31
2019-04-19T08:59:35.750Z,102895.89
2019-04-19T09:02:34.163Z,102897.46
2019-04-19T09:05:46.982Z,102893.31
2019-04-19T09:08:52.328Z,102899.77
2019-04-19T09:12:05.183Z,102897.03
2019-04-19T09:15:14.077Z,102898.64
2019-04-19T09:21:24.050Z,102898.75
2019-04-19T09:24:32.026Z,102898.12
2019-04-19T09:27:49.230Z,102888.98
2019-04-19T09:30:52.079Z,102879.27
2019-04-19T09:33:47.332Z,102881.20
2019-04-19T09:37:02.112Z,102886.60
2019-04-19T09:40:07.122Z,102881.42
2019-04-19T09:43:34.469Z,102879.08
2019-04-19T09:46:40.368Z,102879.87
2019-04-19T09:50:03.839Z,102874.14
2019-04-19T09:53:25.879Z,102875.30
2019-04-19T09:56:33.780Z,102876.02
2019-04-19T09:59:37.355Z,102871.34
2019-04-19T10:02:56.416Z,102866.52
2019-04-19T10:06:11.048Z,102864.92
2019-04-19T10:09:21.840Z,102868.57
2019-04-19T10:12:27.530Z,102869.87
2019-04-19T10:15:40.643Z,102866.86
2019-04-19T10:19:06.897Z,102863.47
2019-04-19T10:22:23.237Z,102859.04
2019-04-19T10:25:47.833Z,102856.15
2019-04-19T10:28:50.709Z,102849.57
2019-04-19T10:32:17.225Z,102850.08
2019-04-19T10:35:25.320Z,102854.74
2019-04-19T10:38:33.906Z,102845.95
2019-04-19T10:41:50.484Z,102857.47
2019-04-19T10:45:12.040Z,102843.30
2019-04-19T10:48:20.036Z,102856.13
2019-04-19T10:51:48.639Z,102846.36
2019-04-19T10:54:57.123Z,102848.70
2019-04-19T10:58:05.416Z,102845.08
2019-04-19T11:01:23.278Z,102844.16
2019-04-19T11:04:31.145Z,102846.00
2019-04-19T11:07:47.855Z,102837.67
2019-04-19T11:11:05.587Z,102839.28
2019-04-19T11:14:14.289Z,102831.75
2019-04-19T11:17:21.575Z,102837.66
2019-04-19T11:20:37.543Z,102834.52
2019-04-19T11:23:36.183Z,102834.32
2019-04-19T11:26:43.601Z,102827.59
2019-04-19T11:29:54.379Z,102827.34
2019-04-19T11:33:23.516Z,102830.53
2019-04-19T11:36:29.338Z,102819.73
2019-04-19T11:39:37.109Z,102818.29
2019-04-19T11:42:45.587Z,102818.69
2019-04-19T11:45:53.661Z,102817.86
2019-04-19T11:49:01.729Z,102813.78
2019-04-19T11:52:23.924Z,102814.33
2019-04-19T11:55:32.651Z,102811.38
2019-04-19T11:58:40.735Z,102810.13
2019-04-19T12:01:48.714Z,102813.64
2019-04-19T12:04:56.250Z,102809.30
2019-04-19T12:08:04.433Z,102810.30
2019-04-19T12:11:12.655Z,102805.55
2019-04-19T12:14:31.207Z,102806.05
2019-04-19T12:17:48.257Z,102801.66
2019-04-19T12:21:05.129Z,102799.83
2019-04-19T12:24:22.470Z,102796.78
2019-04-19T12:27:29.775Z,102797.33
2019-04-19T12:30:39.181Z,102795.89
2019-04-19T12:33:47.467Z,102800.36
2019-04-19T12:36:55.158Z,102796.80
2019-04-19T12:40:03.412Z,102796.03
2019-04-19T12:43:12.012Z,102794.58
2019-04-19T12:46:19.423Z,102794.58
2019-04-19T12:49:26.765Z,102789.00
2019-04-19T12:52:34.203Z,102790.23
2019-04-19T12:55:41.954Z,102786.30
2019-04-19T12:58:59.837Z,102781.84
2019-04-19T13:02:16.032Z,102778.25
2019-04-19T13:05:28.376Z,102785.05
2019-04-19T13:08:36.984Z,102783.45
2019-04-19T13:11:45.066Z,102768.11
2019-04-19T13:15:02.125Z,102771.45
2019-04-19T13:18:20.224Z,102766.94
2019-04-19T13:21:38.622Z,102757.83
2019-04-19T13:24:46.769Z,102760.19
2019-04-19T13:27:57.847Z,102755.63
2019-04-19T13:31:04.303Z,102751.41
2019-04-19T13:34:11.850Z,102753.70
2019-04-19T13:37:27.303Z,102748.30
2019-04-19T13:40:54.168Z,102750.75
2019-04-19T13:44:25.046Z,102744.89
2019-04-19T13:47:31.155Z,102745.32
2019-04-19T13:50:40.818Z,102755.70
2019-04-19T13:53:48.832Z,102746.69
2019-04-19T13:56:57.662Z,102751.11
2019-04-19T14:00:09.960Z,102748.42
2019-04-19T14:03:17.347Z,102744.43
2019-04-19T14:06:26.477Z,102743.34
2019-04-19T14:09:43.712Z,102743.36
2019-04-19T14:12:51.521Z,102738.80
2019-04-19T14:16:09.189Z,102742.67
2019-04-19T14:19:16.627Z,102739.66
2019-04-19T14:22:25.544Z,102741.34
2019-04-19T14:25:33.591Z,102739.66
2019-04-19T14:28:51.485Z,102728.09
2019-04-19T14:31:59.200Z,102733.36
2019-04-19T14:35:17.419Z,102717.08
2019-04-19T14:38:25.620Z,102718.43
2019-04-19T14:41:33.699Z,102720.70
2019-04-19T14:44:51.462Z,102711.42
2019-04-19T14:48:09.039Z,102704.69
2019-04-19T14:51:28.696Z,102704.31
2019-04-19T14:54:44.305Z,102703.49
2019-04-19T14:58:01.080Z,102710.28
2019-04-19T15:01:46.909Z,102703.25
2019-04-19T15:05:31.899Z,102703.50
2019-04-19T15:08:39.426Z,102709.47
2019-04-19T15:11:47.651Z,102709.64
2019-04-19T15:14:55.481Z,102710.59
2019-04-19T15:18:04.359Z,102703.16
2019-04-19T15:21:23.302Z,102702.98
2019-04-19T15:24:30.556Z,102704.75
2019-04-19T15:27:39.077Z,102696.18
2019-04-19T15:30:56.264Z,102697.95
2019-04-19T15:34:03.779Z,102703.41
2019-04-19T15:37:11.802Z,102699.63
2019-04-19T15:40:31.985Z,102693.94
2019-04-19T15:43:48.509Z,102693.17
2019-04-19T15:47:06.432Z,102691.57
2019-04-19T15:50:14.172Z,102689.48
2019-04-19T15:53:31.957Z,102686.24
2019-04-19T15:56:40.298Z,102690.77
2019-04-19T15:59:47.871Z,102685.98
2019-04-19T16:03:20.488Z,102697.34
2019-04-19T16:06:36.297Z,102686.05
2019-04-19T16:10:08.429Z,102680.13
2019-04-19T16:13:14.071Z,102682.34
2019-04-19T16:16:23.059Z,102679.45
2019-04-19T16:19:30.457Z,102683.34
2019-04-19T16:22:38.169Z,102681.88
2019-04-19T16:25:57.042Z,102677.58
2019-04-19T16:29:04.382Z,102683.94
2019-04-19T16:32:12.493Z,102680.69
2019-04-19T16:35:20.098Z,102685.67
2019-04-19T16:38:36.545Z,102680.52
2019-04-19T16:41:44.880Z,102682.39
2019-04-19T16:44:52.244Z,102675.41
2019-04-19T16:47:59.862Z,102676.72
2019-04-19T16:51:16.866Z,102676.22
2019-04-19T16:54:34.272Z,102675.14
2019-04-19T16:57:42.747Z,102671.22
2019-04-19T17:00:50.372Z,102670.27
2019-04-19T17:03:57.742Z,102670.40
2019-04-19T17:07:05.163Z,102673.44
2019-04-19T17:10:12.420Z,102669.66
2019-04-19T17:13:20.570Z,102673.97
2019-04-19T17:16:50.678Z,102672.95
2019-04-19T17:20:16.966Z,102676.44
2019-04-19T17:23:24.463Z,102683.52
2019-04-19T17:26:31.620Z,102683.52
2019-04-19T17:29:49.309Z,102680.07
2019-04-19T17:32:58.831Z,102682.27
2019-04-19T17:36:06.173Z,102684.09
2019-04-19T17:39:23.003Z,102684.03
2019-04-19T17:42:30.625Z,102696.56
2019-04-19T17:45:37.753Z,102689.38
2019-04-19T17:48:46.463Z,102693.20
2019-04-19T17:52:04.320Z,102693.76
2019-04-19T17:55:13.388Z,102696.38
2019-04-19T17:58:12.430Z,102700.81
2019-04-19T18:01:20.252Z,102709.81
2019-04-19T18:04:28.252Z,102707.80
2019-04-19T18:07:40.955Z,102719.20
2019-04-19T18:10:50.375Z,102722.09
2019-04-19T18:13:53.292Z,102725.12
2019-04-19T18:17:00.813Z,102729.44
2019-04-19T18:20:14.034Z,102727.00
2019-04-19T18:23:27.181Z,102734.27
2019-04-19T18:26:36.658Z,102726.87
2019-04-19T18:30:03.836Z,102733.50
2019-04-19T18:33:33.551Z,102729.55
2019-04-19T18:36:46.218Z,102738.37
2019-04-19T18:40:00.380Z,102732.20
2019-04-19T18:43:23.767Z,102736.59
2019-04-19T18:46:26.836Z,102740.92
2019-04-19T18:49:43.548Z,102747.66
2019-04-19T18:53:14.064Z,102745.89
2019-04-19T18:56:22.090Z,102750.36
2019-04-19T18:59:36.983Z,102754.20
2019-04-19T19:02:51.670Z,102750.62
2019-04-19T19:06:05.751Z,102757.89
2019-04-19T19:09:33.496Z,102759.58
2019-04-19T19:12:45.130Z,102755.16
2019-04-19T19:15:54.317Z,102760.78
2019-04-19T19:19:00.666Z,102765.57
2019-04-19T19:22:06.935Z,102765.84
2019-04-19T19:25:29.923Z,102768.19
2019-04-19T19:28:26.481Z,102776.31
2019-04-19T19:31:34.841Z,102778.50
2019-04-19T19:34:43.797Z,102775.64
2019-04-19T19:37:52.395Z,102784.20
2019-04-19T19:41:14.869Z,102779.69
2019-04-19T19:44:25.299Z,102776.84
2019-04-19T19:47:58.781Z,102783.75
2019-04-19T19:51:05.589Z,102784.55
2019-04-19T19:57:35.323Z,102785.98
2019-04-19T20:01:03.526Z,102794.87
2019-04-19T20:04:04.609Z,102788.64
2019-04-19T20:07:15.373Z,102792.84
2019-04-19T20:10:21.336Z,102799.96
2019-04-19T20:13:38.469Z,102796.16
2019-04-19T20:16:38.342Z,102798.70
2019-04-19T20:19:48.231Z,102791.93
2019-04-19T20:22:53.852Z,102795.71
2019-04-19T20:26:19.214Z,102795.14
2019-04-19T20:29:25.410Z,102799.08
2019-04-19T20:32:30.439Z,102795.13
2019-04-19T20:35:38.874Z,102790.01
2019-04-19T20:38:52.018Z,102791.66
2019-04-19T20:42:00.127Z,102790.22
2019-04-19T20:45:12.299Z,102789.55
2019-04-19T20:48:17.809Z,102794.42
2019-04-19T20:51:48.469Z,102789.08
2019-04-19T20:55:04.532Z,102788.14
2019-04-19T20:58:09.615Z,102785.81
2019-04-19T21:01:07.714Z,102796.44
2019-04-19T21:04:17.904Z,102796.32
2019-04-19T21:07:36.746Z,102793.18
2019-04-19T21:10:57.858Z,102795.35
2019-04-19T21:14:11.272Z,102793.30
2019-04-19T21:17:18.808Z,102802.36
2019-04-19T21:20:29.549Z,102800.73
2019-04-19T21:23:36.276Z,102796.81
2019-04-19T21:26:43.907Z,102798.47
2019-04-19T21:29:52.197Z,102809.77
2019-04-19T21:33:05.808Z,102805.02
2019-04-19T21:36:11.632Z,102804.39
2019-04-19T21:39:19.906Z,102800.09
2019-04-19T21:42:41.711Z,102804.17
2019-04-19T21:45:55.015Z,102806.70
2019-04-19T21:49:08.995Z,102811.97
2019-04-19T21:52:16.273Z,102813.69
2019-04-19T21:55:28.668Z,102807.43
2019-04-19T21:58:29.898Z,102805.19
2019-04-19T22:01:41.452Z,102804.84
2019-04-19T22:04:50.764Z,102809.33
2019-04-19T22:07:56.320Z,102807.22
2019-04-19T22:11:02.658Z,102806.75
2019-04-19T22:14:13.039Z,102805.91
2019-04-19T22:17:23.267Z,102805.19
2019-04-19T22:20:27.926Z,102804.81
2019-04-19T22:23:49.107Z,102799.89
2019-04-19T22:27:03.190Z,102803.37
2019-04-19T22:30:21.175Z,102806.17
2019-04-19T22:33:28.549Z,102804.62
2019-04-19T22:36:48.529Z,102798.55
2019-04-19T22:40:04.858Z,102801.09
2019-04-19T22:43:14.654Z,102802.72
2019-04-19T22:46:21.520Z,102802.38
2019-04-19T22:49:33.361Z,102800.30
2019-04-19T22:52:36.658Z,102790.20
2019-04-19T22:55:52.241Z,102795.19
2019-04-19T22:58:52.056Z,102792.61
2019-04-19T23:02:36.307Z,102791.83
2019-04-19T23:05:44.739Z,102791.51
2019-04-19T23:08:58.816Z,102791.63
2019-04-19T23:12:06.934Z,102790.02
2019-04-19T23:15:15.731Z,102793.61
2019-04-19T23:18:24.013Z,102792.55
2019-04-19T23:21:31.188Z,102788.46
2019-04-19T23:24:45.768Z,102788.73
2019-04-19T23:27:53.453Z,102787.30
2019-04-19T23:30:59.780Z,102789.45
2019-04-19T23:34:07.539Z,102782.64
2019-04-19T23:37:16.373Z,102780.92
2019-04-19T23:40:31.283Z,102777.28
2019-04-19T23:43:35.858Z,102776.84
2019-04-19T23:46:41.364Z,102776.89
2019-04-19T23:49:50.831Z,102778.75
2019-04-19T23:53:00.648Z,102775.86
2019-04-19T23:56:18.239Z,102775.81
2019-04-19T23:59:19.053Z,102783.89
